Gunnison Bend Reservoir




Date Hourly Average Reservoir Capacity (AF) Canal Flow (cfs) Battery Voltage (V) Reservoir Height (ft) Gate Height 1 (ft) Gate Height 2 (ft)
11/01/2018 1,325 0.00 13.36 7.00 -0.08 0.00
11/02/2018 1,272 0.00 13.16 6.85 -0.08 0.00
11/03/2018 1,253 0.00 13.32 6.80 -0.08 0.00
11/04/2018 1,261 0.00 13.35 6.83 -0.08 0.00
11/05/2018 1,269 0.00 13.34 6.85 -0.08 0.00
11/06/2018 1,271 0.00 13.26 6.85 -0.08 0.00
11/07/2018 1,252 0.00 13.31 6.80 -0.08 0.00
11/08/2018 1,240 0.00 13.32 6.77 -0.08 0.00
11/09/2018 1,206 0.00 13.33 6.68 -0.08 0.00
11/10/2018 1,188 0.00 13.34 6.63 -0.08 0.00
11/11/2018 1,180 0.00 13.32 6.61 -0.08 0.00
11/12/2018 1,189 0.00 13.36 6.63 -0.08 0.00
11/13/2018 1,197 0.00 13.37 6.65 -0.08 0.00
11/14/2018 1,204 0.00 13.32 6.67 -0.08 0.00
11/15/2018 1,214 0.00 13.28 6.70 -0.08 0.00
11/16/2018 1,225 0.00 13.30 6.73 -0.08 0.00
11/17/2018 1,235 0.00 13.28 6.76 -0.08 0.00
11/18/2018 1,248 0.00 13.27 6.79 -0.08 0.00
11/19/2018 1,256 0.00 13.30 6.81 -0.08 0.00
11/20/2018 1,263 0.00 13.32 6.83 -0.08 0.00
11/21/2018 1,271 0.00 13.32 6.85 -0.08 0.00
11/22/2018 1,279 0.00 13.32 6.87 -0.08 0.00
11/23/2018 1,291 0.00 12.86 6.91 -0.08 0.00
11/24/2018 1,296 0.00 13.14 6.92 -0.08 0.00
11/25/2018 1,308 0.00 12.84 6.95 -0.08 0.00
11/26/2018 1,324 0.00 13.24 7.00 -0.08 0.00
11/27/2018 1,330 0.00 13.33 7.01 -0.08 0.00
11/28/2018 1,341 0.00 13.22 7.04 -0.08 0.00
11/29/2018 1,354 0.00 12.71 7.07 -0.08 0.00
11/30/2018 1,369 0.00 12.78 7.10 -0.08 -0.01
Average 0.00
Maximum 0.00
Minimum 0.00
Total Volume (AF) 0.00